sensor_id;sensor_type;location;lat;lon;timestamp;P1;durP1;ratioP1;P2;durP2;ratioP2
50789;SDS011;37287;47.554;7.844;2023-05-20T00:00:50;3.30;;;2.60;;
50789;SDS011;37287;47.554;7.844;2023-05-20T00:03:18;2.50;;;2.30;;
50789;SDS011;37287;47.554;7.844;2023-05-20T00:05:45;4.03;;;2.90;;
50789;SDS011;37287;47.554;7.844;2023-05-20T00:08:12;4.85;;;3.00;;
50789;SDS011;37287;47.554;7.844;2023-05-20T00:10:43;3.05;;;2.65;;
50789;SDS011;37287;47.554;7.844;2023-05-20T00:13:10;2.90;;;2.50;;
50789;SDS011;37287;47.554;7.844;2023-05-20T00:15:36;5.15;;;2.80;;
50789;SDS011;37287;47.554;7.844;2023-05-20T00:18:05;3.70;;;2.50;;
50789;SDS011;37287;47.554;7.844;2023-05-20T00:20:33;2.50;;;2.28;;
50789;SDS011;37287;47.554;7.844;2023-05-20T00:23:00;3.15;;;2.40;;
50789;SDS011;37287;47.554;7.844;2023-05-20T00:25:27;2.67;;;2.40;;
50789;SDS011;37287;47.554;7.844;2023-05-20T00:27:56;5.00;;;2.53;;
50789;SDS011;37287;47.554;7.844;2023-05-20T00:30:22;3.55;;;2.88;;
50789;SDS011;37287;47.554;7.844;2023-05-20T00:33:02;2.60;;;2.40;;
50789;SDS011;37287;47.554;7.844;2023-05-20T00:35:28;2.65;;;2.45;;
50789;SDS011;37287;47.554;7.844;2023-05-20T00:37:55;3.42;;;2.40;;
50789;SDS011;37287;47.554;7.844;2023-05-20T00:40:22;2.60;;;2.40;;
50789;SDS011;37287;47.554;7.844;2023-05-20T00:42:50;4.57;;;2.55;;
50789;SDS011;37287;47.554;7.844;2023-05-20T00:45:18;3.08;;;2.78;;
50789;SDS011;37287;47.554;7.844;2023-05-20T00:47:45;3.42;;;2.45;;
50789;SDS011;37287;47.554;7.844;2023-05-20T00:50:12;2.85;;;2.40;;
50789;SDS011;37287;47.554;7.844;2023-05-20T00:52:38;6.30;;;2.47;;
50789;SDS011;37287;47.554;7.844;2023-05-20T00:55:07;2.97;;;2.65;;
50789;SDS011;37287;47.554;7.844;2023-05-20T00:57:36;2.63;;;2.42;;
50789;SDS011;37287;47.554;7.844;2023-05-20T01:00:03;2.60;;;2.40;;
50789;SDS011;37287;47.554;7.844;2023-05-20T01:07:56;5.03;;;2.63;;
50789;SDS011;37287;47.554;7.844;2023-05-20T01:10:25;2.55;;;2.35;;
50789;SDS011;37287;47.554;7.844;2023-05-20T01:12:56;2.80;;;2.45;;
50789;SDS011;37287;47.554;7.844;2023-05-20T01:15:27;2.65;;;2.45;;
50789;SDS011;37287;47.554;7.844;2023-05-20T01:17:56;2.58;;;2.38;;
50789;SDS011;37287;47.554;7.844;2023-05-20T01:20:27;2.45;;;2.22;;
50789;SDS011;37287;47.554;7.844;2023-05-20T01:22:59;3.28;;;2.42;;
50789;SDS011;37287;47.554;7.844;2023-05-20T01:25:28;5.43;;;2.78;;
50789;SDS011;37287;47.554;7.844;2023-05-20T01:27:55;2.65;;;2.35;;
50789;SDS011;37287;47.554;7.844;2023-05-20T01:30:25;3.95;;;2.60;;
50789;SDS011;37287;47.554;7.844;2023-05-20T01:33:00;4.40;;;2.42;;
50789;SDS011;37287;47.554;7.844;2023-05-20T01:35:30;3.97;;;2.60;;
50789;SDS011;37287;47.554;7.844;2023-05-20T01:37:58;3.22;;;2.40;;
50789;SDS011;37287;47.554;7.844;2023-05-20T01:40:25;3.10;;;2.60;;
50789;SDS011;37287;47.554;7.844;2023-05-20T01:42:53;3.72;;;2.50;;
50789;SDS011;37287;47.554;7.844;2023-05-20T01:45:22;3.13;;;2.78;;
50789;SDS011;37287;47.554;7.844;2023-05-20T01:47:49;5.18;;;2.80;;
50789;SDS011;37287;47.554;7.844;2023-05-20T01:50:18;4.45;;;2.80;;
50789;SDS011;37287;47.554;7.844;2023-05-20T01:52:44;3.95;;;2.60;;
50789;SDS011;37287;47.554;7.844;2023-05-20T01:55:11;3.00;;;2.70;;
50789;SDS011;37287;47.554;7.844;2023-05-20T01:57:43;3.05;;;2.75;;
50789;SDS011;37287;47.554;7.844;2023-05-20T02:00:10;4.60;;;2.70;;
50789;SDS011;37287;47.554;7.844;2023-05-20T02:02:37;2.78;;;2.50;;
50789;SDS011;37287;47.554;7.844;2023-05-20T02:05:04;3.42;;;2.85;;
50789;SDS011;37287;47.554;7.844;2023-05-20T02:07:33;3.03;;;2.72;;
50789;SDS011;37287;47.554;7.844;2023-05-20T02:09:59;3.92;;;2.88;;
50789;SDS011;37287;47.554;7.844;2023-05-20T02:12:28;4.22;;;2.75;;
50789;SDS011;37287;47.554;7.844;2023-05-20T02:14:55;3.63;;;2.58;;
50789;SDS011;37287;47.554;7.844;2023-05-20T02:17:21;3.38;;;2.67;;
50789;SDS011;37287;47.554;7.844;2023-05-20T02:20:01;3.95;;;2.50;;
50789;SDS011;37287;47.554;7.844;2023-05-20T02:22:31;3.25;;;2.40;;
50789;SDS011;37287;47.554;7.844;2023-05-20T02:25:02;2.80;;;2.47;;
50789;SDS011;37287;47.554;7.844;2023-05-20T02:27:28;2.55;;;2.35;;
50789;SDS011;37287;47.554;7.844;2023-05-20T02:29:57;3.38;;;2.47;;
50789;SDS011;37287;47.554;7.844;2023-05-20T02:32:24;3.67;;;2.67;;
50789;SDS011;37287;47.554;7.844;2023-05-20T02:34:53;3.80;;;2.80;;
50789;SDS011;37287;47.554;7.844;2023-05-20T02:37:21;7.20;;;2.75;;
50789;SDS011;37287;47.554;7.844;2023-05-20T02:39:47;3.67;;;2.72;;
50789;SDS011;37287;47.554;7.844;2023-05-20T02:42:14;3.78;;;2.80;;
50789;SDS011;37287;47.554;7.844;2023-05-20T02:44:47;3.55;;;2.53;;
50789;SDS011;37287;47.554;7.844;2023-05-20T02:47:13;3.13;;;2.70;;
50789;SDS011;37287;47.554;7.844;2023-05-20T02:49:40;3.20;;;2.90;;
50789;SDS011;37287;47.554;7.844;2023-05-20T02:52:09;4.85;;;3.40;;
50789;SDS011;37287;47.554;7.844;2023-05-20T02:54:36;3.42;;;2.90;;
50789;SDS011;37287;47.554;7.844;2023-05-20T02:57:02;4.55;;;3.20;;
50789;SDS011;37287;47.554;7.844;2023-05-20T02:59:29;3.30;;;3.00;;
50789;SDS011;37287;47.554;7.844;2023-05-20T03:01:59;3.33;;;2.95;;
50789;SDS011;37287;47.554;7.844;2023-05-20T03:04:26;4.25;;;2.60;;
50789;SDS011;37287;47.554;7.844;2023-05-20T03:06:53;3.90;;;2.97;;
50789;SDS011;37287;47.554;7.844;2023-05-20T03:09:23;3.03;;;2.70;;
50789;SDS011;37287;47.554;7.844;2023-05-20T03:11:50;3.53;;;2.70;;
50789;SDS011;37287;47.554;7.844;2023-05-20T03:14:17;2.47;;;2.25;;
50789;SDS011;37287;47.554;7.844;2023-05-20T03:16:43;3.22;;;2.78;;
50789;SDS011;37287;47.554;7.844;2023-05-20T03:19:10;4.53;;;2.50;;
50789;SDS011;37287;47.554;7.844;2023-05-20T03:21:38;5.32;;;3.13;;
50789;SDS011;37287;47.554;7.844;2023-05-20T03:24:09;3.63;;;2.80;;
50789;SDS011;37287;47.554;7.844;2023-05-20T03:26:35;3.25;;;2.72;;
50789;SDS011;37287;47.554;7.844;2023-05-20T03:29:05;4.35;;;2.97;;
50789;SDS011;37287;47.554;7.844;2023-05-20T03:31:32;6.50;;;3.20;;
50789;SDS011;37287;47.554;7.844;2023-05-20T03:34:00;3.28;;;2.75;;
50789;SDS011;37287;47.554;7.844;2023-05-20T03:36:29;4.45;;;2.70;;
50789;SDS011;37287;47.554;7.844;2023-05-20T03:38:56;8.52;;;3.10;;
50789;SDS011;37287;47.554;7.844;2023-05-20T03:41:22;2.97;;;2.70;;
50789;SDS011;37287;47.554;7.844;2023-05-20T03:43:53;2.72;;;2.53;;
50789;SDS011;37287;47.554;7.844;2023-05-20T03:46:20;3.80;;;2.88;;
50789;SDS011;37287;47.554;7.844;2023-05-20T03:48:46;4.03;;;3.10;;
50789;SDS011;37287;47.554;7.844;2023-05-20T03:51:13;6.15;;;3.22;;
50789;SDS011;37287;47.554;7.844;2023-05-20T03:53:40;3.35;;;2.80;;
50789;SDS011;37287;47.554;7.844;2023-05-20T03:56:09;4.97;;;3.20;;
50789;SDS011;37287;47.554;7.844;2023-05-20T03:58:37;3.67;;;2.80;;
50789;SDS011;37287;47.554;7.844;2023-05-20T04:01:04;3.45;;;2.83;;
50789;SDS011;37287;47.554;7.844;2023-05-20T04:03:30;5.88;;;3.40;;
50789;SDS011;37287;47.554;7.844;2023-05-20T04:05:59;5.03;;;2.92;;
50789;SDS011;37287;47.554;7.844;2023-05-20T04:08:26;3.92;;;2.53;;
50789;SDS011;37287;47.554;7.844;2023-05-20T04:10:55;3.13;;;2.83;;
50789;SDS011;37287;47.554;7.844;2023-05-20T04:13:23;3.75;;;3.00;;
50789;SDS011;37287;47.554;7.844;2023-05-20T04:15:51;2.90;;;2.58;;
50789;SDS011;37287;47.554;7.844;2023-05-20T04:18:18;4.25;;;3.38;;
50789;SDS011;37287;47.554;7.844;2023-05-20T04:20:53;3.28;;;2.97;;
50789;SDS011;37287;47.554;7.844;2023-05-20T04:23:21;4.20;;;3.22;;
50789;SDS011;37287;47.554;7.844;2023-05-20T04:25:50;6.65;;;3.00;;
50789;SDS011;37287;47.554;7.844;2023-05-20T04:28:18;3.55;;;2.90;;
50789;SDS011;37287;47.554;7.844;2023-05-20T04:30:56;3.33;;;3.00;;
50789;SDS011;37287;47.554;7.844;2023-05-20T04:33:24;5.65;;;3.05;;
50789;SDS011;37287;47.554;7.844;2023-05-20T04:35:52;3.75;;;2.78;;
50789;SDS011;37287;47.554;7.844;2023-05-20T04:38:24;4.60;;;3.00;;
50789;SDS011;37287;47.554;7.844;2023-05-20T04:40:58;7.82;;;2.90;;
50789;SDS011;37287;47.554;7.844;2023-05-20T04:43:25;5.63;;;2.80;;
50789;SDS011;37287;47.554;7.844;2023-05-20T04:45:55;5.05;;;3.20;;
50789;SDS011;37287;47.554;7.844;2023-05-20T04:48:23;4.82;;;2.97;;
50789;SDS011;37287;47.554;7.844;2023-05-20T04:50:49;5.07;;;2.80;;
50789;SDS011;37287;47.554;7.844;2023-05-20T04:53:17;3.88;;;3.00;;
50789;SDS011;37287;47.554;7.844;2023-05-20T04:55:46;4.57;;;3.03;;
50789;SDS011;37287;47.554;7.844;2023-05-20T04:58:13;4.53;;;3.42;;
50789;SDS011;37287;47.554;7.844;2023-05-20T05:00:45;3.53;;;3.03;;
50789;SDS011;37287;47.554;7.844;2023-05-20T05:03:12;4.32;;;3.15;;
50789;SDS011;37287;47.554;7.844;2023-05-20T05:05:38;3.58;;;2.80;;
50789;SDS011;37287;47.554;7.844;2023-05-20T05:08:05;5.25;;;3.20;;
50789;SDS011;37287;47.554;7.844;2023-05-20T05:10:34;5.72;;;2.97;;
50789;SDS011;37287;47.554;7.844;2023-05-20T05:13:01;2.60;;;2.40;;
50789;SDS011;37287;47.554;7.844;2023-05-20T05:15:27;3.25;;;2.95;;
50789;SDS011;37287;47.554;7.844;2023-05-20T05:17:55;3.78;;;2.97;;
50789;SDS011;37287;47.554;7.844;2023-05-20T05:20:22;4.40;;;3.05;;
50789;SDS011;37287;47.554;7.844;2023-05-20T05:22:48;3.33;;;2.30;;
50789;SDS011;37287;47.554;7.844;2023-05-20T05:25:17;4.00;;;2.75;;
50789;SDS011;37287;47.554;7.844;2023-05-20T05:27:44;3.15;;;2.75;;
50789;SDS011;37287;47.554;7.844;2023-05-20T05:30:10;5.72;;;2.92;;
50789;SDS011;37287;47.554;7.844;2023-05-20T05:32:37;3.53;;;2.60;;
50789;SDS011;37287;47.554;7.844;2023-05-20T05:35:04;5.53;;;3.20;;
50789;SDS011;37287;47.554;7.844;2023-05-20T05:37:33;4.47;;;2.70;;
50789;SDS011;37287;47.554;7.844;2023-05-20T05:40:08;6.05;;;2.85;;
50789;SDS011;37287;47.554;7.844;2023-05-20T05:42:35;3.83;;;2.78;;
50789;SDS011;37287;47.554;7.844;2023-05-20T05:45:01;3.65;;;2.72;;
50789;SDS011;37287;47.554;7.844;2023-05-20T05:47:34;3.85;;;2.83;;
50789;SDS011;37287;47.554;7.844;2023-05-20T05:50:05;3.67;;;2.67;;
50789;SDS011;37287;47.554;7.844;2023-05-20T05:52:35;3.88;;;2.90;;
50789;SDS011;37287;47.554;7.844;2023-05-20T05:55:02;3.42;;;2.47;;
50789;SDS011;37287;47.554;7.844;2023-05-20T05:57:28;3.83;;;2.95;;
50789;SDS011;37287;47.554;7.844;2023-05-20T05:59:55;4.25;;;2.85;;
50789;SDS011;37287;47.554;7.844;2023-05-20T06:02:21;4.95;;;3.28;;
50789;SDS011;37287;47.554;7.844;2023-05-20T06:04:48;6.40;;;3.30;;
50789;SDS011;37287;47.554;7.844;2023-05-20T06:07:15;4.47;;;3.30;;
50789;SDS011;37287;47.554;7.844;2023-05-20T06:09:42;4.72;;;3.00;;
50789;SDS011;37287;47.554;7.844;2023-05-20T06:12:08;5.07;;;3.00;;
50789;SDS011;37287;47.554;7.844;2023-05-20T06:14:37;4.28;;;3.60;;
50789;SDS011;37287;47.554;7.844;2023-05-20T06:17:18;6.03;;;3.33;;
50789;SDS011;37287;47.554;7.844;2023-05-20T06:19:45;3.30;;;2.83;;
50789;SDS011;37287;47.554;7.844;2023-05-20T06:22:11;3.70;;;2.90;;
50789;SDS011;37287;47.554;7.844;2023-05-20T06:24:38;3.67;;;2.90;;
50789;SDS011;37287;47.554;7.844;2023-05-20T06:27:05;3.60;;;2.90;;
50789;SDS011;37287;47.554;7.844;2023-05-20T06:29:34;6.15;;;3.13;;
50789;SDS011;37287;47.554;7.844;2023-05-20T06:32:01;3.75;;;3.15;;
50789;SDS011;37287;47.554;7.844;2023-05-20T06:34:32;3.58;;;2.80;;
50789;SDS011;37287;47.554;7.844;2023-05-20T06:36:58;5.57;;;3.45;;
50789;SDS011;37287;47.554;7.844;2023-05-20T06:39:29;3.25;;;2.95;;
50789;SDS011;37287;47.554;7.844;2023-05-20T06:41:56;3.83;;;2.75;;
50789;SDS011;37287;47.554;7.844;2023-05-20T06:44:23;6.53;;;3.08;;
50789;SDS011;37287;47.554;7.844;2023-05-20T06:46:51;3.03;;;2.72;;
50789;SDS011;37287;47.554;7.844;2023-05-20T06:49:18;3.35;;;2.55;;
50789;SDS011;37287;47.554;7.844;2023-05-20T06:51:49;3.67;;;2.72;;
50789;SDS011;37287;47.554;7.844;2023-05-20T06:54:17;4.05;;;2.50;;
50789;SDS011;37287;47.554;7.844;2023-05-20T06:56:44;3.10;;;2.42;;
50789;SDS011;37287;47.554;7.844;2023-05-20T06:59:10;2.53;;;2.33;;
50789;SDS011;37287;47.554;7.844;2023-05-20T07:01:41;4.70;;;2.50;;
50789;SDS011;37287;47.554;7.844;2023-05-20T07:04:07;4.57;;;3.17;;
50789;SDS011;37287;47.554;7.844;2023-05-20T07:06:34;4.40;;;2.50;;
50789;SDS011;37287;47.554;7.844;2023-05-20T07:09:03;3.55;;;2.50;;
50789;SDS011;37287;47.554;7.844;2023-05-20T07:11:34;4.60;;;2.38;;
50789;SDS011;37287;47.554;7.844;2023-05-20T07:14:00;3.22;;;2.38;;
50789;SDS011;37287;47.554;7.844;2023-05-20T07:16:33;4.55;;;2.40;;
50789;SDS011;37287;47.554;7.844;2023-05-20T07:19:02;3.08;;;2.63;;
50789;SDS011;37287;47.554;7.844;2023-05-20T07:21:29;2.40;;;2.20;;
50789;SDS011;37287;47.554;7.844;2023-05-20T07:23:56;2.40;;;2.20;;
50789;SDS011;37287;47.554;7.844;2023-05-20T07:26:23;2.58;;;2.38;;
50789;SDS011;37287;47.554;7.844;2023-05-20T07:28:49;3.00;;;2.50;;
50789;SDS011;37287;47.554;7.844;2023-05-20T07:31:17;5.82;;;2.60;;
50789;SDS011;37287;47.554;7.844;2023-05-20T07:33:49;2.65;;;2.30;;
50789;SDS011;37287;47.554;7.844;2023-05-20T07:36:16;4.32;;;2.65;;
50789;SDS011;37287;47.554;7.844;2023-05-20T07:38:47;5.32;;;2.83;;
50789;SDS011;37287;47.554;7.844;2023-05-20T07:41:28;3.60;;;2.78;;
50789;SDS011;37287;47.554;7.844;2023-05-20T07:43:56;3.97;;;3.13;;
50789;SDS011;37287;47.554;7.844;2023-05-20T07:46:23;5.75;;;3.40;;
50789;SDS011;37287;47.554;7.844;2023-05-20T07:48:50;5.47;;;3.33;;
50789;SDS011;37287;47.554;7.844;2023-05-20T07:51:16;3.95;;;2.83;;
50789;SDS011;37287;47.554;7.844;2023-05-20T07:53:44;4.13;;;2.60;;
50789;SDS011;37287;47.554;7.844;2023-05-20T07:56:10;3.88;;;2.63;;
50789;SDS011;37287;47.554;7.844;2023-05-20T07:58:40;4.28;;;2.95;;
50789;SDS011;37287;47.554;7.844;2023-05-20T08:01:07;4.20;;;2.80;;
50789;SDS011;37287;47.554;7.844;2023-05-20T08:03:36;3.85;;;2.50;;
50789;SDS011;37287;47.554;7.844;2023-05-20T08:06:03;2.72;;;2.22;;
50789;SDS011;37287;47.554;7.844;2023-05-20T08:08:30;4.25;;;2.70;;
50789;SDS011;37287;47.554;7.844;2023-05-20T08:10:56;4.43;;;2.90;;
50789;SDS011;37287;47.554;7.844;2023-05-20T08:13:24;3.88;;;2.50;;
50789;SDS011;37287;47.554;7.844;2023-05-20T08:15:55;3.40;;;2.65;;
50789;SDS011;37287;47.554;7.844;2023-05-20T08:18:21;3.42;;;2.60;;
50789;SDS011;37287;47.554;7.844;2023-05-20T08:20:48;5.10;;;2.67;;
50789;SDS011;37287;47.554;7.844;2023-05-20T08:23:15;5.20;;;2.67;;
50789;SDS011;37287;47.554;7.844;2023-05-20T08:25:45;2.97;;;2.50;;
50789;SDS011;37287;47.554;7.844;2023-05-20T08:28:13;2.65;;;2.28;;
50789;SDS011;37287;47.554;7.844;2023-05-20T08:30:40;3.65;;;2.50;;
50789;SDS011;37287;47.554;7.844;2023-05-20T08:33:07;3.03;;;2.50;;
50789;SDS011;37287;47.554;7.844;2023-05-20T08:35:40;4.85;;;2.75;;
50789;SDS011;37287;47.554;7.844;2023-05-20T08:38:06;4.70;;;2.95;;
50789;SDS011;37287;47.554;7.844;2023-05-20T08:40:33;5.60;;;2.90;;
50789;SDS011;37287;47.554;7.844;2023-05-20T08:43:01;5.50;;;2.83;;
50789;SDS011;37287;47.554;7.844;2023-05-20T08:45:28;3.72;;;2.80;;
50789;SDS011;37287;47.554;7.844;2023-05-20T08:47:57;8.95;;;3.08;;
50789;SDS011;37287;47.554;7.844;2023-05-20T08:50:25;5.45;;;2.78;;
50789;SDS011;37287;47.554;7.844;2023-05-20T08:52:52;3.38;;;2.55;;
50789;SDS011;37287;47.554;7.844;2023-05-20T08:55:23;2.35;;;2.15;;
50789;SDS011;37287;47.554;7.844;2023-05-20T08:57:56;4.70;;;2.80;;
50789;SDS011;37287;47.554;7.844;2023-05-20T09:00:23;3.15;;;2.35;;
50789;SDS011;37287;47.554;7.844;2023-05-20T09:02:54;3.28;;;2.42;;
50789;SDS011;37287;47.554;7.844;2023-05-20T09:05:25;2.78;;;2.20;;
50789;SDS011;37287;47.554;7.844;2023-05-20T09:08:04;2.60;;;2.40;;
50789;SDS011;37287;47.554;7.844;2023-05-20T09:10:34;4.43;;;2.50;;
50789;SDS011;37287;47.554;7.844;2023-05-20T09:13:02;3.75;;;2.92;;
50789;SDS011;37287;47.554;7.844;2023-05-20T09:15:30;4.57;;;2.67;;
50789;SDS011;37287;47.554;7.844;2023-05-20T09:17:59;3.88;;;2.45;;
50789;SDS011;37287;47.554;7.844;2023-05-20T09:20:32;3.58;;;2.53;;
50789;SDS011;37287;47.554;7.844;2023-05-20T09:23:03;2.63;;;2.17;;
50789;SDS011;37287;47.554;7.844;2023-05-20T09:25:32;3.00;;;2.38;;
50789;SDS011;37287;47.554;7.844;2023-05-20T09:28:03;4.40;;;2.85;;
50789;SDS011;37287;47.554;7.844;2023-05-20T09:30:34;2.78;;;2.53;;
50789;SDS011;37287;47.554;7.844;2023-05-20T09:33:02;3.55;;;2.42;;
50789;SDS011;37287;47.554;7.844;2023-05-20T09:35:30;7.70;;;2.30;;
50789;SDS011;37287;47.554;7.844;2023-05-20T09:38:03;3.78;;;2.60;;
50789;SDS011;37287;47.554;7.844;2023-05-20T09:40:31;2.28;;;2.08;;
50789;SDS011;37287;47.554;7.844;2023-05-20T09:43:00;2.72;;;2.35;;
50789;SDS011;37287;47.554;7.844;2023-05-20T09:45:30;3.70;;;2.63;;
50789;SDS011;37287;47.554;7.844;2023-05-20T09:47:57;3.15;;;2.60;;
50789;SDS011;37287;47.554;7.844;2023-05-20T09:50:26;3.85;;;2.30;;
50789;SDS011;37287;47.554;7.844;2023-05-20T09:53:00;4.03;;;2.50;;
50789;SDS011;37287;47.554;7.844;2023-05-20T09:55:29;5.93;;;2.92;;
50789;SDS011;37287;47.554;7.844;2023-05-20T09:57:57;3.13;;;2.70;;
50789;SDS011;37287;47.554;7.844;2023-05-20T10:00:29;3.30;;;2.30;;
50789;SDS011;37287;47.554;7.844;2023-05-20T10:02:56;5.78;;;3.17;;
50789;SDS011;37287;47.554;7.844;2023-05-20T10:05:28;3.53;;;2.95;;
50789;SDS011;37287;47.554;7.844;2023-05-20T10:16:45;3.45;;;2.58;;
50789;SDS011;37287;47.554;7.844;2023-05-20T10:19:29;3.40;;;2.60;;
50789;SDS011;37287;47.554;7.844;2023-05-20T10:27:03;3.28;;;2.63;;
50789;SDS011;37287;47.554;7.844;2023-05-20T10:29:44;3.80;;;2.63;;
50789;SDS011;37287;47.554;7.844;2023-05-20T10:32:28;4.20;;;2.95;;
50789;SDS011;37287;47.554;7.844;2023-05-20T10:35:00;3.67;;;2.88;;
50789;SDS011;37287;47.554;7.844;2023-05-20T10:37:41;3.25;;;2.95;;
50789;SDS011;37287;47.554;7.844;2023-05-20T10:40:14;5.38;;;3.67;;
50789;SDS011;37287;47.554;7.844;2023-05-20T10:42:43;5.97;;;3.47;;
50789;SDS011;37287;47.554;7.844;2023-05-20T10:45:11;6.15;;;3.78;;
50789;SDS011;37287;47.554;7.844;2023-05-20T10:47:41;4.47;;;3.97;;
50789;SDS011;37287;47.554;7.844;2023-05-20T10:50:32;6.22;;;4.00;;
50789;SDS011;37287;47.554;7.844;2023-05-20T10:53:03;6.55;;;3.72;;
50789;SDS011;37287;47.554;7.844;2023-05-20T10:55:51;4.63;;;3.35;;
50789;SDS011;37287;47.554;7.844;2023-05-20T10:58:23;4.68;;;3.10;;
50789;SDS011;37287;47.554;7.844;2023-05-20T11:00:54;4.50;;;3.33;;
50789;SDS011;37287;47.554;7.844;2023-05-20T11:03:21;6.13;;;2.90;;
50789;SDS011;37287;47.554;7.844;2023-05-20T11:05:49;4.75;;;3.47;;
50789;SDS011;37287;47.554;7.844;2023-05-20T11:08:16;3.88;;;3.53;;
50789;SDS011;37287;47.554;7.844;2023-05-20T11:10:55;4.05;;;3.65;;
50789;SDS011;37287;47.554;7.844;2023-05-20T11:13:22;2.88;;;2.65;;
50789;SDS011;37287;47.554;7.844;2023-05-20T11:15:59;6.70;;;3.03;;
50789;SDS011;37287;47.554;7.844;2023-05-20T11:18:26;5.15;;;2.90;;
50789;SDS011;37287;47.554;7.844;2023-05-20T11:20:56;5.20;;;3.50;;
50789;SDS011;37287;47.554;7.844;2023-05-20T11:23:28;4.32;;;3.05;;
50789;SDS011;37287;47.554;7.844;2023-05-20T11:25:58;3.30;;;3.00;;
50789;SDS011;37287;47.554;7.844;2023-05-20T11:28:25;3.72;;;3.20;;
50789;SDS011;37287;47.554;7.844;2023-05-20T11:30:52;4.80;;;3.20;;
50789;SDS011;37287;47.554;7.844;2023-05-20T11:33:19;3.45;;;3.15;;
50789;SDS011;37287;47.554;7.844;2023-05-20T11:35:49;3.05;;;2.63;;
50789;SDS011;37287;47.554;7.844;2023-05-20T11:38:22;4.15;;;3.75;;
50789;SDS011;37287;47.554;7.844;2023-05-20T11:40:52;3.97;;;3.45;;
50789;SDS011;37287;47.554;7.844;2023-05-20T11:43:21;4.15;;;3.28;;
50789;SDS011;37287;47.554;7.844;2023-05-20T11:45:52;3.65;;;3.35;;
50789;SDS011;37287;47.554;7.844;2023-05-20T11:48:24;5.07;;;3.40;;
50789;SDS011;37287;47.554;7.844;2023-05-20T11:50:54;4.25;;;3.80;;
50789;SDS011;37287;47.554;7.844;2023-05-20T11:53:23;4.38;;;3.90;;
50789;SDS011;37287;47.554;7.844;2023-05-20T11:55:51;4.72;;;3.63;;
50789;SDS011;37287;47.554;7.844;2023-05-20T11:58:21;3.97;;;3.58;;
50789;SDS011;37287;47.554;7.844;2023-05-20T12:01:12;4.38;;;3.45;;
50789;SDS011;37287;47.554;7.844;2023-05-20T12:03:48;9.30;;;3.28;;
50789;SDS011;37287;47.554;7.844;2023-05-20T12:06:18;4.35;;;2.97;;
50789;SDS011;37287;47.554;7.844;2023-05-20T12:08:44;3.90;;;3.17;;
50789;SDS011;37287;47.554;7.844;2023-05-20T12:11:12;3.47;;;3.17;;
50789;SDS011;37287;47.554;7.844;2023-05-20T12:13:39;3.40;;;3.00;;
50789;SDS011;37287;47.554;7.844;2023-05-20T12:16:06;3.78;;;3.08;;
50789;SDS011;37287;47.554;7.844;2023-05-20T12:18:33;3.72;;;3.38;;
50789;SDS011;37287;47.554;7.844;2023-05-20T12:20:59;3.90;;;3.58;;
50789;SDS011;37287;47.554;7.844;2023-05-20T12:23:26;3.65;;;3.35;;
50789;SDS011;37287;47.554;7.844;2023-05-20T12:25:57;4.82;;;3.40;;
50789;SDS011;37287;47.554;7.844;2023-05-20T12:28:24;5.53;;;3.63;;
50789;SDS011;37287;47.554;7.844;2023-05-20T12:30:50;2.80;;;2.60;;
50789;SDS011;37287;47.554;7.844;2023-05-20T12:33:17;3.08;;;2.78;;
50789;SDS011;37287;47.554;7.844;2023-05-20T12:35:45;2.83;;;2.53;;
50789;SDS011;37287;47.554;7.844;2023-05-20T12:38:12;3.55;;;3.20;;
50789;SDS011;37287;47.554;7.844;2023-05-20T12:40:40;4.13;;;3.20;;
50789;SDS011;37287;47.554;7.844;2023-05-20T12:43:09;5.75;;;3.05;;
50789;SDS011;37287;47.554;7.844;2023-05-20T12:45:36;3.20;;;2.70;;
50789;SDS011;37287;47.554;7.844;2023-05-20T12:48:03;3.47;;;3.15;;
50789;SDS011;37287;47.554;7.844;2023-05-20T12:50:34;2.90;;;2.60;;
50789;SDS011;37287;47.554;7.844;2023-05-20T12:53:01;3.83;;;3.17;;
50789;SDS011;37287;47.554;7.844;2023-05-20T12:55:29;3.75;;;3.25;;
50789;SDS011;37287;47.554;7.844;2023-05-20T12:57:56;4.88;;;4.13;;
50789;SDS011;37287;47.554;7.844;2023-05-20T13:00:24;3.58;;;3.28;;
50789;SDS011;37287;47.554;7.844;2023-05-20T13:02:53;3.13;;;2.80;;
50789;SDS011;37287;47.554;7.844;2023-05-20T13:05:20;3.95;;;2.80;;
50789;SDS011;37287;47.554;7.844;2023-05-20T13:07:47;2.97;;;2.78;;
50789;SDS011;37287;47.554;7.844;2023-05-20T13:10:14;4.15;;;2.88;;
50789;SDS011;37287;47.554;7.844;2023-05-20T13:12:43;5.22;;;2.83;;
50789;SDS011;37287;47.554;7.844;2023-05-20T13:15:13;3.58;;;3.08;;
50789;SDS011;37287;47.554;7.844;2023-05-20T13:17:41;2.83;;;2.63;;
50789;SDS011;37287;47.554;7.844;2023-05-20T13:20:08;3.42;;;2.83;;
50789;SDS011;37287;47.554;7.844;2023-05-20T13:22:37;6.03;;;3.50;;
50789;SDS011;37287;47.554;7.844;2023-05-20T13:25:04;5.15;;;3.10;;
50789;SDS011;37287;47.554;7.844;2023-05-20T13:27:30;3.78;;;3.33;;
50789;SDS011;37287;47.554;7.844;2023-05-20T13:29:57;6.88;;;3.15;;
50789;SDS011;37287;47.554;7.844;2023-05-20T13:32:28;3.10;;;2.80;;
50789;SDS011;37287;47.554;7.844;2023-05-20T13:34:55;5.38;;;3.10;;
50789;SDS011;37287;47.554;7.844;2023-05-20T13:37:22;5.60;;;2.97;;
50789;SDS011;37287;47.554;7.844;2023-05-20T13:39:50;2.92;;;2.70;;
50789;SDS011;37287;47.554;7.844;2023-05-20T13:42:17;3.45;;;3.13;;
50789;SDS011;37287;47.554;7.844;2023-05-20T13:44:44;2.83;;;2.63;;
50789;SDS011;37287;47.554;7.844;2023-05-20T13:47:12;3.33;;;3.03;;
50789;SDS011;37287;47.554;7.844;2023-05-20T13:49:39;2.90;;;2.70;;
50789;SDS011;37287;47.554;7.844;2023-05-20T13:52:05;2.80;;;2.60;;
50789;SDS011;37287;47.554;7.844;2023-05-20T13:54:43;2.40;;;2.20;;
50789;SDS011;37287;47.554;7.844;2023-05-20T13:57:12;3.47;;;2.78;;
50789;SDS011;37287;47.554;7.844;2023-05-20T13:59:39;4.28;;;2.47;;
50789;SDS011;37287;47.554;7.844;2023-05-20T14:02:06;3.47;;;3.17;;
50789;SDS011;37287;47.554;7.844;2023-05-20T14:04:33;2.65;;;2.45;;
50789;SDS011;37287;47.554;7.844;2023-05-20T14:07:05;2.70;;;2.50;;
50789;SDS011;37287;47.554;7.844;2023-05-20T14:09:35;3.00;;;2.80;;
50789;SDS011;37287;47.554;7.844;2023-05-20T14:12:02;3.13;;;2.83;;
50789;SDS011;37287;47.554;7.844;2023-05-20T14:14:28;3.22;;;2.50;;
50789;SDS011;37287;47.554;7.844;2023-05-20T14:17:00;2.60;;;2.40;;
50789;SDS011;37287;47.554;7.844;2023-05-20T14:19:27;3.13;;;2.83;;
50789;SDS011;37287;47.554;7.844;2023-05-20T14:21:54;3.05;;;2.78;;
50789;SDS011;37287;47.554;7.844;2023-05-20T14:24:21;3.55;;;3.25;;
50789;SDS011;37287;47.554;7.844;2023-05-20T14:26:49;3.10;;;2.35;;
50789;SDS011;37287;47.554;7.844;2023-05-20T14:29:15;2.58;;;2.38;;
50789;SDS011;37287;47.554;7.844;2023-05-20T14:31:44;2.72;;;2.50;;
50789;SDS011;37287;47.554;7.844;2023-05-20T14:34:11;3.63;;;2.90;;
50789;SDS011;37287;47.554;7.844;2023-05-20T14:36:38;3.72;;;2.95;;
50789;SDS011;37287;47.554;7.844;2023-05-20T14:39:05;2.75;;;2.55;;
50789;SDS011;37287;47.554;7.844;2023-05-20T14:41:31;2.30;;;2.10;;
50789;SDS011;37287;47.554;7.844;2023-05-20T14:43:58;4.85;;;3.30;;
50789;SDS011;37287;47.554;7.844;2023-05-20T14:46:26;3.13;;;2.85;;
50789;SDS011;37287;47.554;7.844;2023-05-20T14:48:53;2.78;;;2.58;;
50789;SDS011;37287;47.554;7.844;2023-05-20T14:51:22;2.90;;;2.70;;
50789;SDS011;37287;47.554;7.844;2023-05-20T14:53:48;2.80;;;2.60;;
50789;SDS011;37287;47.554;7.844;2023-05-20T14:56:15;3.08;;;2.72;;
50789;SDS011;37287;47.554;7.844;2023-05-20T14:58:41;2.78;;;2.58;;
50789;SDS011;37287;47.554;7.844;2023-05-20T15:01:10;3.25;;;2.35;;
50789;SDS011;37287;47.554;7.844;2023-05-20T15:03:40;2.70;;;2.50;;
50789;SDS011;37287;47.554;7.844;2023-05-20T15:06:07;3.03;;;2.83;;
50789;SDS011;37287;47.554;7.844;2023-05-20T15:08:34;2.60;;;2.40;;
50789;SDS011;37287;47.554;7.844;2023-05-20T15:11:00;2.75;;;2.55;;
50789;SDS011;37287;47.554;7.844;2023-05-20T15:13:27;2.80;;;2.60;;
50789;SDS011;37287;47.554;7.844;2023-05-20T15:15:54;4.10;;;2.65;;